Time;durP1;ratioP1;P1;durP2;ratioP2;P2;SDS_P1;SDS_P2;PMS_P1;PMS_P2;Temp;Humidity;BMP_temperature;BMP_pressure;BME280_temperature;BME280_humidity;BME280_pressure;Samples;Min_cycle;Max_cycle;Signal;HPM_P1;HPM_P2
2022/04/02 00:02:18;;;;;;;2.97;2.75;;;;;;;;;;5097481;28;20233;-56
2022/04/02 00:04:45;;;;;;;3.30;2.80;;;;;;;;;;5097043;28;20579;-55
2022/04/02 00:07:13;;;;;;;2.88;2.67;;;;;;;;;;5096871;28;20203;-55
2022/04/02 00:09:42;;;;;;;4.32;2.90;;;;;;;;;;5097159;28;20203;-55
2022/04/02 00:12:09;;;;;;;3.10;2.60;;;;;;;;;;5097335;28;20203;-55
2022/04/02 00:14:37;;;;;;;2.75;2.55;;;;;;;;;;5096034;28;20326;-55
2022/04/02 00:17:04;;;;;;;3.00;2.70;;;;;;;;;;5076876;28;20493;-56
2022/04/02 00:19:32;;;;;;;2.80;2.60;;;;;;;;;;5077118;28;20232;-56
2022/04/02 00:21:59;;;;;;;2.97;2.30;;;;;;;;;;5076777;28;20196;-55
2022/04/02 00:24:27;;;;;;;2.60;2.35;;;;;;;;;;5076469;28;20207;-55
2022/04/02 00:26:55;;;;;;;3.35;2.78;;;;;;;;;;5076787;28;20212;-55
2022/04/02 00:29:23;;;;;;;2.53;2.33;;;;;;;;;;5059023;28;20211;-56
2022/04/02 00:31:50;;;;;;;2.97;2.60;;;;;;;;;;5084428;28;20195;-56
2022/04/02 00:34:17;;;;;;;2.80;2.50;;;;;;;;;;5078851;28;20220;-56
2022/04/02 00:36:45;;;;;;;2.60;2.40;;;;;;;;;;5088978;28;20204;-55
2022/04/02 00:39:12;;;;;;;3.10;2.50;;;;;;;;;;5096773;28;20214;-56
2022/04/02 00:41:40;;;;;;;2.25;2.05;;;;;;;;;;5107488;28;20638;-56
2022/04/02 00:44:13;;;;;;;2.53;2.33;;;;;;;;;;5100006;28;20571;-56
2022/04/02 00:46:40;;;;;;;2.95;2.35;;;;;;;;;;5119791;28;20199;-55
2022/04/02 00:49:09;;;;;;;2.35;2.15;;;;;;;;;;5121093;28;20490;-56
2022/04/02 00:51:41;;;;;;;2.53;2.10;;;;;;;;;;5115433;28;20199;-56
2022/04/02 00:54:10;;;;;;;3.40;2.53;;;;;;;;;;5100314;28;20276;-55
2022/04/02 00:56:38;;;;;;;2.50;1.98;;;;;;;;;;5102948;28;20196;-56
2022/04/02 00:59:05;;;;;;;2.65;2.45;;;;;;;;;;5120889;28;20264;-55
2022/04/02 01:01:34;;;;;;;2.13;1.90;;;;;;;;;;5118938;28;20218;-56
2022/04/02 01:04:02;;;;;;;2.28;2.08;;;;;;;;;;5100310;28;20192;-55
2022/04/02 01:06:30;;;;;;;2.80;2.53;;;;;;;;;;5103438;28;20195;-55
2022/04/02 01:08:58;;;;;;;3.25;1.90;;;;;;;;;;5120351;28;20195;-55
2022/04/02 01:11:35;;;;;;;2.30;2.00;;;;;;;;;;5118177;28;20199;-55
2022/04/02 01:14:03;;;;;;;1.80;1.70;;;;;;;;;;5120375;28;20605;-56
2022/04/02 01:16:32;;;;;;;3.10;2.00;;;;;;;;;;5118484;28;20229;-55
2022/04/02 01:19:01;;;;;;;2.78;2.40;;;;;;;;;;5100011;28;20211;-55
2022/04/02 01:21:29;;;;;;;2.10;1.90;;;;;;;;;;5100649;28;20257;-55
2022/04/02 01:23:59;;;;;;;1.98;1.88;;;;;;;;;;5100272;28;20212;-55
2022/04/02 01:26:26;;;;;;;2.25;1.88;;;;;;;;;;5100191;28;20214;-55
2022/04/02 01:28:56;;;;;;;2.13;1.70;;;;;;;;;;5099949;28;20270;-56
2022/04/02 01:31:24;;;;;;;2.20;2.00;;;;;;;;;;5100377;28;20856;-55
2022/04/02 01:33:52;;;;;;;2.08;1.85;;;;;;;;;;5113536;28;20295;-56
2022/04/02 01:36:20;;;;;;;3.75;2.00;;;;;;;;;;5099816;28;20195;-55
2022/04/02 01:38:48;;;;;;;2.05;1.70;;;;;;;;;;5110306;28;20209;-55
2022/04/02 01:41:17;;;;;;;2.10;1.83;;;;;;;;;;5119595;28;20258;-56
2022/04/02 01:43:44;;;;;;;1.55;1.45;;;;;;;;;;5103437;28;20200;-55
2022/04/02 01:46:12;;;;;;;2.05;1.85;;;;;;;;;;5099812;28;20463;-55
2022/04/02 01:48:39;;;;;;;2.00;1.67;;;;;;;;;;5099816;28;20235;-55
2022/04/02 01:51:07;;;;;;;1.90;1.70;;;;;;;;;;5099754;28;20204;-55
2022/04/02 01:53:34;;;;;;;1.73;1.63;;;;;;;;;;5100406;28;20215;-56
2022/04/02 01:56:02;;;;;;;1.70;1.60;;;;;;;;;;5098199;28;20215;-56
2022/04/02 01:58:31;;;;;;;1.90;1.80;;;;;;;;;;5111833;28;20645;-55
2022/04/02 02:00:59;;;;;;;1.80;1.70;;;;;;;;;;5099657;28;20563;-55
2022/04/02 02:03:26;;;;;;;1.50;1.40;;;;;;;;;;5108857;28;20248;-55
2022/04/02 02:05:54;;;;;;;1.60;1.38;;;;;;;;;;5119817;28;20499;-55
2022/04/02 02:08:23;;;;;;;1.40;1.30;;;;;;;;;;5119683;28;20203;-55
2022/04/02 02:10:50;;;;;;;2.13;1.60;;;;;;;;;;5119993;28;20213;-55
2022/04/02 02:13:18;;;;;;;2.03;1.52;;;;;;;;;;5119591;28;20211;-56
2022/04/02 02:15:46;;;;;;;1.50;1.40;;;;;;;;;;5108986;28;20628;-56
2022/04/02 02:18:14;;;;;;;1.70;1.60;;;;;;;;;;5099235;28;20594;-55
2022/04/02 02:20:42;;;;;;;1.63;1.50;;;;;;;;;;5099246;28;20203;-55
2022/04/02 02:23:10;;;;;;;1.75;1.50;;;;;;;;;;5099117;28;20298;-56
2022/04/02 02:25:37;;;;;;;1.50;1.40;;;;;;;;;;5098960;28;20210;-55
2022/04/02 02:28:05;;;;;;;1.50;1.40;;;;;;;;;;5098707;28;20204;-55
2022/04/02 02:30:32;;;;;;;1.90;1.40;;;;;;;;;;5098941;28;20483;-55
2022/04/02 02:35:54;;;;;;;1.40;1.30;;;;;;;;;;5114805;28;20245;-56
2022/04/02 02:38:22;;;;;;;1.85;1.75;;;;;;;;;;5118520;28;20203;-55
2022/04/02 02:40:50;;;;;;;1.73;1.50;;;;;;;;;;5117268;28;20231;-56
2022/04/02 02:43:19;;;;;;;1.88;1.63;;;;;;;;;;5118981;28;20213;-55
2022/04/02 02:45:46;;;;;;;1.60;1.50;;;;;;;;;;5107844;28;20261;-55
2022/04/02 02:48:15;;;;;;;1.63;1.52;;;;;;;;;;5098782;28;20200;-55
2022/04/02 02:50:43;;;;;;;1.55;1.45;;;;;;;;;;5098630;28;20203;-55
2022/04/02 02:53:11;;;;;;;1.63;1.52;;;;;;;;;;5098669;28;20615;-56
2022/04/02 02:55:38;;;;;;;1.38;1.27;;;;;;;;;;5099888;28;20476;-56
2022/04/02 02:58:07;;;;;;;1.42;1.25;;;;;;;;;;5103372;28;20199;-56
2022/04/02 03:00:35;;;;;;;1.60;1.50;;;;;;;;;;5118684;28;20282;-55
2022/04/02 03:03:03;;;;;;;1.50;1.40;;;;;;;;;;5105928;28;20204;-55
2022/04/02 03:05:32;;;;;;;1.35;1.25;;;;;;;;;;5098115;28;20200;-56
2022/04/02 03:08:00;;;;;;;1.55;1.42;;;;;;;;;;5098222;28;20252;-56
2022/04/02 03:10:27;;;;;;;1.63;1.52;;;;;;;;;;5098803;28;20204;-56
2022/04/02 03:12:55;;;;;;;1.30;1.20;;;;;;;;;;5112481;28;20210;-55
2022/04/02 03:15:24;;;;;;;1.98;1.35;;;;;;;;;;5118127;28;20223;-58
2022/04/02 03:17:52;;;;;;;1.40;1.30;;;;;;;;;;5118158;28;20207;-55
2022/04/02 03:20:21;;;;;;;2.05;1.40;;;;;;;;;;5099296;28;20211;-55
2022/04/02 03:22:51;;;;;;;1.55;1.30;;;;;;;;;;5097719;28;20222;-55
2022/04/02 03:25:19;;;;;;;1.58;1.25;;;;;;;;;;5098206;28;20200;-56
2022/04/02 03:27:47;;;;;;;1.40;1.20;;;;;;;;;;5111210;28;20214;-55
2022/04/02 03:30:16;;;;;;;1.40;1.30;;;;;;;;;;5100076;28;20200;-55
2022/04/02 03:32:44;;;;;;;1.30;1.15;;;;;;;;;;5101600;28;20199;-55
2022/04/02 03:35:14;;;;;;;1.67;1.58;;;;;;;;;;5097718;28;20239;-55
2022/04/02 03:37:42;;;;;;;1.60;1.50;;;;;;;;;;5097369;28;20250;-56
2022/04/02 03:40:14;;;;;;;1.50;1.40;;;;;;;;;;5097623;28;20211;-56
2022/04/02 03:42:42;;;;;;;1.35;1.25;;;;;;;;;;5105987;28;20310;-56
2022/04/02 03:45:10;;;;;;;1.65;1.10;;;;;;;;;;5117576;28;20187;-55
2022/04/02 03:47:38;;;;;;;1.42;1.33;;;;;;;;;;5105109;28;20214;-56
2022/04/02 03:50:06;;;;;;;1.67;1.58;;;;;;;;;;5097460;28;20293;-56
2022/04/02 03:52:34;;;;;;;2.45;1.50;;;;;;;;;;5097053;28;20200;-56
2022/04/02 03:55:01;;;;;;;2.65;1.38;;;;;;;;;;5097224;28;20234;-55
2022/04/02 03:57:30;;;;;;;1.48;1.30;;;;;;;;;;5104066;28;20211;-55
2022/04/02 03:59:58;;;;;;;1.30;1.20;;;;;;;;;;5101967;28;20250;-55
2022/04/02 04:02:25;;;;;;;1.38;1.27;;;;;;;;;;5099416;28;20207;-55
2022/04/02 04:04:53;;;;;;;1.25;1.15;;;;;;;;;;5118264;28;20558;-55
2022/04/02 04:07:20;;;;;;;1.42;1.33;;;;;;;;;;5116858;28;20203;-55
2022/04/02 04:09:48;;;;;;;1.40;1.30;;;;;;;;;;5117234;28;20218;-56
2022/04/02 04:12:17;;;;;;;1.38;1.27;;;;;;;;;;5117892;28;20210;-56
2022/04/02 04:14:46;;;;;;;1.98;1.30;;;;;;;;;;5117290;28;20202;-55
2022/04/02 04:17:14;;;;;;;1.25;1.15;;;;;;;;;;5117629;28;20195;-56
2022/04/02 04:19:41;;;;;;;1.20;1.10;;;;;;;;;;5122528;28;20214;-56
2022/04/02 04:22:10;;;;;;;1.33;1.23;;;;;;;;;;5124261;28;20612;-55
2022/04/02 04:24:37;;;;;;;1.58;1.27;;;;;;;;;;5124028;28;20581;-55
2022/04/02 04:27:05;;;;;;;1.30;1.20;;;;;;;;;;5124410;28;20203;-55
2022/04/02 04:29:32;;;;;;;1.48;1.38;;;;;;;;;;5124393;28;20502;-56
2022/04/02 04:32:01;;;;;;;1.20;1.10;;;;;;;;;;5124461;28;20210;-56
2022/04/02 04:34:28;;;;;;;1.33;1.20;;;;;;;;;;5123935;28;20281;-55
2022/04/02 04:36:56;;;;;;;1.67;1.30;;;;;;;;;;5119436;28;20219;-55
2022/04/02 04:39:23;;;;;;;1.17;1.08;;;;;;;;;;5104058;28;20214;-56
2022/04/02 04:41:51;;;;;;;1.38;1.27;;;;;;;;;;5105149;28;20238;-56
2022/04/02 04:44:18;;;;;;;1.08;1.08;;;;;;;;;;5123875;28;20213;-55
2022/04/02 04:46:46;;;;;;;1.10;1.00;;;;;;;;;;5103518;28;20202;-55
2022/04/02 04:49:15;;;;;;;1.40;1.30;;;;;;;;;;5103413;28;20245;-57
2022/04/02 04:51:42;;;;;;;1.33;1.23;;;;;;;;;;5103407;28;20199;-55
2022/04/02 04:54:10;;;;;;;1.30;1.20;;;;;;;;;;5103115;28;20211;-55
2022/04/02 04:56:39;;;;;;;1.45;1.35;;;;;;;;;;5104889;28;20230;-55
2022/04/02 04:59:09;;;;;;;1.40;1.30;;;;;;;;;;5103843;28;20239;-56
2022/04/02 05:01:36;;;;;;;1.40;1.30;;;;;;;;;;5103576;28;20285;-55
2022/04/02 05:04:04;;;;;;;1.38;1.27;;;;;;;;;;5103299;28;20496;-56
2022/04/02 05:06:32;;;;;;;1.23;1.10;;;;;;;;;;5102881;28;20202;-55
2022/04/02 05:09:00;;;;;;;1.20;1.10;;;;;;;;;;5119025;28;20670;-55
2022/04/02 05:11:28;;;;;;;1.40;1.30;;;;;;;;;;5123638;28;20230;-56
2022/04/02 05:13:55;;;;;;;1.40;1.30;;;;;;;;;;5123940;28;20203;-55
2022/04/02 05:16:23;;;;;;;1.40;1.20;;;;;;;;;;5109333;28;20215;-56
2022/04/02 05:18:51;;;;;;;1.30;1.20;;;;;;;;;;5103029;28;20226;-55
2022/04/02 05:21:18;;;;;;;1.42;1.33;;;;;;;;;;5118631;28;20199;-55
2022/04/02 05:23:47;;;;;;;2.22;1.20;;;;;;;;;;5121464;28;20208;-55
2022/04/02 05:26:15;;;;;;;3.63;1.00;;;;;;;;;;5121370;28;20200;-55
2022/04/02 05:28:42;;;;;;;1.30;1.20;;;;;;;;;;5103274;28;20482;-55
2022/04/02 05:31:10;;;;;;;1.60;1.30;;;;;;;;;;5099646;28;20203;-56
2022/04/02 05:33:38;;;;;;;1.63;1.42;;;;;;;;;;5100308;28;20503;-55
2022/04/02 05:36:06;;;;;;;1.20;1.10;;;;;;;;;;5099799;28;20223;-55
2022/04/02 05:38:34;;;;;;;1.40;1.30;;;;;;;;;;5110966;28;20281;-55
2022/04/02 05:41:03;;;;;;;1.50;1.40;;;;;;;;;;5119183;28;20226;-56
2022/04/02 05:43:30;;;;;;;1.20;1.10;;;;;;;;;;5103340;28;20210;-55
2022/04/02 05:45:57;;;;;;;1.27;1.17;;;;;;;;;;5100562;28;20265;-55
2022/04/02 05:48:25;;;;;;;1.70;1.30;;;;;;;;;;5118367;28;20213;-55
2022/04/02 05:50:53;;;;;;;1.20;1.10;;;;;;;;;;5118711;28;20226;-55
2022/04/02 05:53:20;;;;;;;1.40;1.30;;;;;;;;;;5119552;28;20273;-55
2022/04/02 05:55:48;;;;;;;2.03;1.33;;;;;;;;;;5119595;28;20222;-55
2022/04/02 05:58:18;;;;;;;1.55;1.00;;;;;;;;;;5105876;28;20195;-56
2022/04/02 06:00:46;;;;;;;1.70;1.13;;;;;;;;;;5120150;28;20206;-56
2022/04/02 06:03:16;;;;;;;1.25;1.15;;;;;;;;;;5109092;28;20208;-55
2022/04/02 06:05:43;;;;;;;1.20;1.10;;;;;;;;;;5099252;28;20583;-55
2022/04/02 06:08:10;;;;;;;1.30;1.20;;;;;;;;;;5099613;28;20204;-55
2022/04/02 06:10:38;;;;;;;1.30;1.20;;;;;;;;;;5099417;28;20216;-55
2022/04/02 06:13:05;;;;;;;1.30;1.20;;;;;;;;;;5099113;28;20203;-55
2022/04/02 06:15:35;;;;;;;1.20;1.00;;;;;;;;;;5110439;28;20223;-55
2022/04/02 06:18:02;;;;;;;1.30;1.20;;;;;;;;;;5119090;28;20203;-55
2022/04/02 06:20:30;;;;;;;1.00;1.00;;;;;;;;;;5119277;28;20207;-54
2022/04/02 06:22:57;;;;;;;1.15;1.05;;;;;;;;;;5119004;28;20207;-56
2022/04/02 06:25:24;;;;;;;1.40;1.30;;;;;;;;;;5119477;28;20203;-56
2022/04/02 06:27:54;;;;;;;1.30;1.20;;;;;;;;;;5118878;28;20203;-55
2022/04/02 06:30:22;;;;;;;1.13;1.02;;;;;;;;;;5119141;28;20215;-55
2022/04/02 06:32:51;;;;;;;1.15;1.05;;;;;;;;;;5117846;28;20206;-55
2022/04/02 06:35:19;;;;;;;1.50;1.40;;;;;;;;;;5102550;28;20502;-55
2022/04/02 06:37:48;;;;;;;1.25;1.15;;;;;;;;;;5102860;28;20195;-55
2022/04/02 06:40:16;;;;;;;1.40;1.20;;;;;;;;;;5115463;28;20203;-55
2022/04/02 06:42:43;;;;;;;1.60;1.23;;;;;;;;;;5097520;28;20646;-56
2022/04/02 06:45:11;;;;;;;1.20;1.10;;;;;;;;;;5098692;28;20198;-55
2022/04/02 06:47:38;;;;;;;1.40;1.30;;;;;;;;;;5097386;28;20192;-56
2022/04/02 06:50:08;;;;;;;1.40;1.30;;;;;;;;;;5097982;28;20199;-55
2022/04/02 06:52:36;;;;;;;1.40;1.15;;;;;;;;;;5117441;28;20206;-56
2022/04/02 06:55:04;;;;;;;1.50;1.30;;;;;;;;;;5117378;28;20225;-56
2022/04/02 06:57:31;;;;;;;1.48;1.10;;;;;;;;;;5116790;28;20214;-55
2022/04/02 06:59:59;;;;;;;1.50;1.25;;;;;;;;;;5117269;28;20210;-55
2022/04/02 07:02:26;;;;;;;1.30;1.20;;;;;;;;;;5104347;28;20200;-55
2022/04/02 07:04:53;;;;;;;2.40;2.17;;;;;;;;;;5097324;28;20203;-56
2022/04/02 07:07:23;;;;;;;19.08;15.32;;;;;;;;;;5107391;28;20286;-55
2022/04/02 07:09:51;;;;;;;20.38;15.93;;;;;;;;;;5097616;28;20203;-55
2022/04/02 07:12:19;;;;;;;18.80;15.38;;;;;;;;;;5096672;28;20203;-56
2022/04/02 07:14:46;;;;;;;16.52;14.38;;;;;;;;;;5096985;28;20204;-56
2022/04/02 07:17:14;;;;;;;16.98;14.75;;;;;;;;;;5097128;28;20220;-55
2022/04/02 07:19:42;;;;;;;18.23;14.48;;;;;;;;;;5096761;28;20594;-55
2022/04/02 07:22:09;;;;;;;18.45;13.88;;;;;;;;;;5108597;28;20612;-56
2022/04/02 07:24:40;;;;;;;17.67;14.32;;;;;;;;;;5117198;28;20740;-56
2022/04/02 07:27:08;;;;;;;17.17;14.05;;;;;;;;;;5110173;28;20196;-55
2022/04/02 07:29:36;;;;;;;18.02;14.05;;;;;;;;;;5111709;28;20201;-55
2022/04/02 07:32:04;;;;;;;15.38;13.57;;;;;;;;;;5115595;28;20213;-55
2022/04/02 07:34:32;;;;;;;15.77;13.60;;;;;;;;;;5096876;28;20196;-55
2022/04/02 07:37:05;;;;;;;17.95;14.23;;;;;;;;;;5096338;28;20599;-55
2022/04/02 07:39:36;;;;;;;14.93;13.18;;;;;;;;;;5096411;28;20204;-55
2022/04/02 07:42:10;;;;;;;16.30;14.23;;;;;;;;;;5096405;28;20231;-55
2022/04/02 07:44:44;;;;;;;15.25;13.10;;;;;;;;;;5096125;28;20215;-55
2022/04/02 07:47:14;;;;;;;14.65;12.63;;;;;;;;;;5097346;28;20535;-55
2022/04/02 07:49:45;;;;;;;14.73;12.93;;;;;;;;;;5096571;28;20541;-55
2022/04/02 07:52:14;;;;;;;14.07;12.60;;;;;;;;;;5105067;28;20190;-55
2022/04/02 07:54:43;;;;;;;14.90;12.93;;;;;;;;;;5115574;28;20203;-55
2022/04/02 07:57:13;;;;;;;16.30;12.35;;;;;;;;;;5107527;28;20223;-55
2022/04/02 07:59:42;;;;;;;15.52;12.85;;;;;;;;;;5111946;28;20203;-55
2022/04/02 08:02:36;;;;;;;14.30;11.98;;;;;;;;;;5112161;28;20204;-55
2022/04/02 08:05:00;;;;;;;12.98;11.60;;;;;;;;;;5095693;28;20533;-55
2022/04/02 08:07:28;;;;;;;13.18;11.65;;;;;;;;;;5095743;28;20203;-55
2022/04/02 08:09:56;;;;;;;12.70;10.98;;;;;;;;;;5095204;28;20204;-55
2022/04/02 08:12:25;;;;;;;13.73;11.02;;;;;;;;;;5095359;28;20214;-55
2022/04/02 08:14:52;;;;;;;12.32;10.68;;;;;;;;;;5103508;28;20247;-56
2022/04/02 08:17:21;;;;;;;12.80;11.38;;;;;;;;;;5116326;28;20502;-55
2022/04/02 08:19:51;;;;;;;12.40;11.07;;;;;;;;;;5115193;28;20211;-55
2022/04/02 08:22:19;;;;;;;11.48;9.95;;;;;;;;;;5116170;28;20206;-56
2022/04/02 08:24:47;;;;;;;12.32;10.25;;;;;;;;;;5115112;28;20202;-55
2022/04/02 08:27:19;;;;;;;11.13;9.82;;;;;;;;;;5115955;28;20213;-55
2022/04/02 08:29:58;;;;;;;12.25;10.38;;;;;;;;;;5115779;28;20217;-57
2022/04/02 08:32:30;;;;;;;11.20;10.00;;;;;;;;;;5115498;28;20231;-55
2022/04/02 08:35:07;;;;;;;10.88;9.73;;;;;;;;;;5115735;28;20213;-55
2022/04/02 08:37:55;;;;;;;11.77;9.77;;;;;;;;;;5115684;28;20501;-55
2022/04/02 08:40:33;;;;;;;10.32;9.23;;;;;;;;;;5103315;28;20196;-56
2022/04/02 08:43:09;;;;;;;9.57;8.60;;;;;;;;;;5115216;28;20237;-55
2022/04/02 08:45:41;;;;;;;9.80;8.80;;;;;;;;;;5112951;28;20214;-55
2022/04/02 08:48:26;;;;;;;10.43;9.32;;;;;;;;;;5095036;28;20192;-55
2022/04/02 08:51:04;;;;;;;11.57;9.55;;;;;;;;;;5094650;28;20207;-56
2022/04/02 08:53:45;;;;;;;10.30;9.20;;;;;;;;;;5102282;28;20198;-55
2022/04/02 08:56:18;;;;;;;9.85;8.63;;;;;;;;;;5100619;28;20647;-55
2022/04/02 08:58:58;;;;;;;11.25;10.05;;;;;;;;;;5114874;28;20203;-55
2022/04/02 09:01:30;;;;;;;20.30;18.20;;;;;;;;;;5104604;28;20195;-55
2022/04/02 09:04:13;;;;;;;17.90;16.10;;;;;;;;;;5095701;28;20287;-56
2022/04/02 09:06:58;;;;;;;16.23;14.48;;;;;;;;;;5098312;28;20214;-56
2022/04/02 09:09:34;;;;;;;16.52;14.82;;;;;;;;;;5116300;28;20199;-55
2022/04/02 09:12:10;;;;;;;16.27;14.50;;;;;;;;;;5117545;28;20689;-55
2022/04/02 09:14:56;;;;;;;15.50;13.77;;;;;;;;;;5118606;28;20210;-55
2022/04/02 09:17:41;;;;;;;15.40;13.80;;;;;;;;;;5097127;28;20215;-55
2022/04/02 09:20:14;;;;;;;14.20;12.10;;;;;;;;;;5097915;28;20208;-56
2022/04/02 09:22:51;;;;;;;14.30;12.85;;;;;;;;;;5099233;28;20204;-55
2022/04/02 09:25:48;;;;;;;12.80;11.02;;;;;;;;;;5112208;28;20187;-56
2022/04/02 09:28:28;;;;;;;13.55;12.20;;;;;;;;;;5117624;28;20202;-55
2022/04/02 09:31:18;;;;;;;12.55;11.32;;;;;;;;;;5117730;28;20194;-56
2022/04/02 09:34:00;;;;;;;12.75;11.13;;;;;;;;;;5118216;28;20195;-56
2022/04/02 09:36:32;;;;;;;12.10;10.85;;;;;;;;;;5057782;28;20238;-56
2022/04/02 09:39:05;;;;;;;11.98;10.57;;;;;;;;;;5102002;28;20204;-55
2022/04/02 09:41:58;;;;;;;11.35;10.15;;;;;;;;;;5101739;28;20224;-55
2022/04/02 09:44:37;;;;;;;11.35;10.18;;;;;;;;;;5097620;28;20206;-56
2022/04/02 09:47:06;;;;;;;10.38;9.32;;;;;;;;;;5111827;28;20205;-55
2022/04/02 09:49:36;;;;;;;11.00;9.45;;;;;;;;;;5117444;28;20195;-56
2022/04/02 09:52:06;;;;;;;10.18;8.95;;;;;;;;;;5102751;28;20384;-56
2022/04/02 09:54:38;;;;;;;9.57;8.35;;;;;;;;;;5096671;28;20200;-55
2022/04/02 09:57:09;;;;;;;10.13;9.13;;;;;;;;;;5112147;28;20861;-56
2022/04/02 09:59:48;;;;;;;9.15;8.30;;;;;;;;;;5117920;28;20203;-55
2022/04/02 10:02:24;;;;;;;8.55;7.75;;;;;;;;;;5104983;28;20203;-57
2022/04/02 10:04:55;;;;;;;8.70;7.80;;;;;;;;;;5097068;28;20612;-55
2022/04/02 10:07:28;;;;;;;8.68;7.78;;;;;;;;;;5104780;28;20183;-55
2022/04/02 10:09:56;;;;;;;8.32;7.03;;;;;;;;;;5116436;28;20199;-55
2022/04/02 10:12:25;;;;;;;7.93;7.13;;;;;;;;;;5118157;28;20255;-55
2022/04/02 10:14:57;;;;;;;8.68;7.55;;;;;;;;;;5117912;28;20203;-55
2022/04/02 10:17:28;;;;;;;7.75;6.55;;;;;;;;;;5117185;28;20296;-56
2022/04/02 10:19:57;;;;;;;6.85;6.18;;;;;;;;;;5101007;28;20503;-56
2022/04/02 10:22:35;;;;;;;7.43;6.72;;;;;;;;;;5097982;28;20281;-56
2022/04/02 10:25:07;;;;;;;7.90;6.63;;;;;;;;;;5112536;28;20199;-55
2022/04/02 10:27:35;;;;;;;6.80;6.13;;;;;;;;;;5111563;28;20192;-56
2022/04/02 10:30:06;;;;;;;6.80;6.20;;;;;;;;;;5096712;28;20191;-56
2022/04/02 10:32:51;;;;;;;6.65;6.05;;;;;;;;;;5114889;28;20284;-55
2022/04/02 10:35:19;;;;;;;6.07;5.53;;;;;;;;;;5097183;28;20234;-55
2022/04/02 10:37:55;;;;;;;7.60;5.85;;;;;;;;;;5102892;28;20228;-55
2022/04/02 10:40:25;;;;;;;7.15;5.57;;;;;;;;;;5099553;28;20500;-55
2022/04/02 10:42:55;;;;;;;7.05;5.28;;;;;;;;;;5096237;28;20203;-55
2022/04/02 10:45:26;;;;;;;6.28;5.22;;;;;;;;;;5095510;28;20238;-55
2022/04/02 10:47:58;;;;;;;6.15;5.03;;;;;;;;;;5075178;28;20201;-55
2022/04/02 10:50:28;;;;;;;7.18;5.30;;;;;;;;;;5076008;28;20485;-55
2022/04/02 10:53:01;;;;;;;5.43;4.93;;;;;;;;;;5074718;28;20204;-55
2022/04/02 10:55:29;;;;;;;5.95;4.80;;;;;;;;;;5074928;28;20216;-55
2022/04/02 10:57:59;;;;;;;5.68;4.82;;;;;;;;;;5074608;28;20227;-55
2022/04/02 11:00:26;;;;;;;5.13;4.60;;;;;;;;;;5088230;28;20196;-55
2022/04/02 11:03:02;;;;;;;4.95;4.40;;;;;;;;;;5088942;28;20203;-55
2022/04/02 11:05:35;;;;;;;4.82;4.32;;;;;;;;;;5090232;28;20210;-55
2022/04/02 11:08:06;;;;;;;6.93;4.57;;;;;;;;;;5092950;28;20230;-55
2022/04/02 11:10:36;;;;;;;5.50;4.40;;;;;;;;;;5074974;28;20215;-55
2022/04/02 11:13:04;;;;;;;4.43;3.88;;;;;;;;;;5074556;28;20281;-55
2022/04/02 11:15:32;;;;;;;6.05;4.13;;;;;;;;;;5074721;28;20204;-55
2022/04/02 11:18:01;;;;;;;5.05;4.55;;;;;;;;;;5073937;28;20221;-55
2022/04/02 11:20:29;;;;;;;5.38;3.75;;;;;;;;;;5074207;28;20238;-55
2022/04/02 11:23:08;;;;;;;4.20;3.65;;;;;;;;;;5075051;28;20208;-55
2022/04/02 11:25:36;;;;;;;3.75;3.35;;;;;;;;;;5073986;28;20199;-55
2022/04/02 11:28:10;;;;;;;4.20;3.80;;;;;;;;;;5073522;28;20283;-55
2022/04/02 11:30:40;;;;;;;3.97;3.63;;;;;;;;;;5084727;28;20210;-55
2022/04/02 11:33:09;;;;;;;4.53;3.78;;;;;;;;;;5095035;28;20804;-55
2022/04/02 11:35:40;;;;;;;4.43;3.60;;;;;;;;;;5095242;28;20214;-55
2022/04/02 11:38:14;;;;;;;3.75;3.42;;;;;;;;;;5086209;28;20217;-55
2022/04/02 11:40:43;;;;;;;4.20;3.80;;;;;;;;;;5076870;28;20844;-55
2022/04/02 11:43:11;;;;;;;3.92;3.50;;;;;;;;;;5112963;28;20205;-55
2022/04/02 11:45:38;;;;;;;3.90;3.50;;;;;;;;;;5111697;28;20195;-55
2022/04/02 11:48:10;;;;;;;3.70;3.40;;;;;;;;;;5114952;28;20198;-55
2022/04/02 11:50:40;;;;;;;5.10;3.30;;;;;;;;;;5098396;28;20660;-55
2022/04/02 11:53:08;;;;;;;4.20;3.20;;;;;;;;;;5113785;28;20218;-55
2022/04/02 11:55:37;;;;;;;3.15;2.85;;;;;;;;;;5097660;28;20196;-55
2022/04/02 11:58:06;;;;;;;4.60;3.15;;;;;;;;;;5106096;28;20260;-55
2022/04/02 12:00:35;;;;;;;4.20;3.30;;;;;;;;;;5092869;28;20203;-55
2022/04/02 12:03:02;;;;;;;3.75;2.70;;;;;;;;;;5095781;28;20199;-55
2022/04/02 12:05:37;;;;;;;3.78;2.90;;;;;;;;;;5093936;28;20200;-55
2022/04/02 12:08:05;;;;;;;3.60;2.70;;;;;;;;;;5093757;28;20231;-55
2022/04/02 12:10:33;;;;;;;3.20;2.90;;;;;;;;;;5093677;28;20210;-55
2022/04/02 12:13:04;;;;;;;3.30;2.67;;;;;;;;;;5093581;28;20204;-55
2022/04/02 12:15:31;;;;;;;2.60;2.40;;;;;;;;;;5106642;28;20651;-54
2022/04/02 12:18:02;;;;;;;2.90;2.63;;;;;;;;;;5113891;28;20230;-55
2022/04/02 12:20:30;;;;;;;3.17;2.88;;;;;;;;;;5114183;28;20607;-55
2022/04/02 12:23:07;;;;;;;2.85;2.65;;;;;;;;;;5113619;28;20203;-55
2022/04/02 12:25:35;;;;;;;2.95;2.65;;;;;;;;;;5113547;28;20573;-55
2022/04/02 12:28:10;;;;;;;2.70;2.50;;;;;;;;;;5113619;28;20206;-55
2022/04/02 12:30:39;;;;;;;2.38;2.17;;;;;;;;;;5113519;28;20275;-55
2022/04/02 12:33:08;;;;;;;2.60;2.28;;;;;;;;;;5113402;28;20196;-55
2022/04/02 12:35:36;;;;;;;2.53;2.33;;;;;;;;;;5113863;28;20202;-55
2022/04/02 12:38:05;;;;;;;2.67;2.33;;;;;;;;;;5105699;28;20223;-55
2022/04/02 12:40:35;;;;;;;2.53;2.03;;;;;;;;;;5097092;28;20199;-55
2022/04/02 12:43:05;;;;;;;2.35;2.15;;;;;;;;;;5116738;28;20756;-55
2022/04/02 12:45:33;;;;;;;2.65;2.33;;;;;;;;;;5116412;28;20212;-55
2022/04/02 12:48:02;;;;;;;1.95;1.85;;;;;;;;;;5118264;28;20214;-55
2022/04/02 12:50:31;;;;;;;2.17;2.00;;;;;;;;;;5118564;28;20199;-55
2022/04/02 12:52:59;;;;;;;2.15;1.98;;;;;;;;;;5117933;28;20282;-55
2022/04/02 12:55:27;;;;;;;2.10;1.88;;;;;;;;;;5118175;28;20282;-55
2022/04/02 12:58:10;;;;;;;1.85;1.75;;;;;;;;;;5117821;28;20234;-55
2022/04/02 13:00:39;;;;;;;2.60;1.83;;;;;;;;;;5113024;28;20199;-55
2022/04/02 13:03:07;;;;;;;2.35;1.95;;;;;;;;;;5097249;28;20196;-55
2022/04/02 13:05:45;;;;;;;2.05;1.75;;;;;;;;;;5108047;28;20499;-55
2022/04/02 13:08:24;;;;;;;2.53;2.10;;;;;;;;;;5108038;28;20667;-55
2022/04/02 13:10:54;;;;;;;2.38;1.98;;;;;;;;;;5096768;28;20203;-55
2022/04/02 13:13:36;;;;;;;2.55;2.10;;;;;;;;;;5097629;28;20275;-55
2022/04/02 13:16:04;;;;;;;2.65;1.70;;;;;;;;;;5098222;28;20257;-55
2022/04/02 13:21:19;;;;;;;2.58;1.90;;;;;;;;;;5085184;28;20275;-55
2022/04/02 13:24:13;;;;;;;2.05;1.85;;;;;;;;;;5116502;28;20199;-55
2022/04/02 13:26:52;;;;;;;2.28;2.08;;;;;;;;;;5044693;28;20207;-55
2022/04/02 13:29:28;;;;;;;2.13;1.60;;;;;;;;;;5096507;28;20199;-55
2022/04/02 13:32:00;;;;;;;2.65;1.70;;;;;;;;;;5111728;28;20191;-55
2022/04/02 13:34:33;;;;;;;2.78;1.75;;;;;;;;;;5110734;28;20191;-55
2022/04/02 13:37:11;;;;;;;1.60;1.50;;;;;;;;;;5095742;28;20200;-55
2022/04/02 13:39:38;;;;;;;1.60;1.50;;;;;;;;;;5096125;28;20223;-55
2022/04/02 13:42:08;;;;;;;1.85;1.60;;;;;;;;;;5109574;28;20238;-55
2022/04/02 13:44:44;;;;;;;1.80;1.65;;;;;;;;;;5116557;28;20203;-55
2022/04/02 13:47:12;;;;;;;1.75;1.60;;;;;;;;;;5112952;28;20210;-55
2022/04/02 13:49:44;;;;;;;1.88;1.65;;;;;;;;;;5096708;28;20200;-55
2022/04/02 13:52:12;;;;;;;2.13;1.60;;;;;;;;;;5094493;28;20207;-55
2022/04/02 13:54:54;;;;;;;3.20;2.92;;;;;;;;;;5095264;28;20203;-55
2022/04/02 13:57:26;;;;;;;4.78;4.10;;;;;;;;;;5096672;28;20199;-55
2022/04/02 14:00:00;;;;;;;6.90;6.20;;;;;;;;;;5114463;28;20223;-55
2022/04/02 14:02:28;;;;;;;9.13;8.23;;;;;;;;;;5115798;28;20207;-55
2022/04/02 14:05:02;;;;;;;10.27;9.27;;;;;;;;;;5099042;28;20704;-55
2022/04/02 14:07:31;;;;;;;10.65;9.57;;;;;;;;;;5095202;28;20207;-55
2022/04/02 14:10:02;;;;;;;12.65;11.35;;;;;;;;;;5095535;28;20562;-55
2022/04/02 14:12:35;;;;;;;13.82;12.40;;;;;;;;;;5095683;28;20204;-55
2022/04/02 14:15:08;;;;;;;13.88;12.48;;;;;;;;;;5095577;28;20212;-55
2022/04/02 14:17:37;;;;;;;15.55;14.10;;;;;;;;;;5115688;28;20590;-55
2022/04/02 14:20:06;;;;;;;14.95;13.45;;;;;;;;;;5116028;28;20219;-55
2022/04/02 14:22:38;;;;;;;15.18;13.68;;;;;;;;;;5115417;28;20210;-55
2022/04/02 14:25:10;;;;;;;13.95;12.55;;;;;;;;;;5115126;28;20658;-55
2022/04/02 14:27:50;;;;;;;13.18;11.82;;;;;;;;;;5115603;28;20207;-55
2022/04/02 14:30:24;;;;;;;14.05;12.45;;;;;;;;;;5116382;28;20301;-56
2022/04/02 14:33:10;;;;;;;12.63;11.43;;;;;;;;;;5116576;28;20206;-55
2022/04/02 14:35:56;;;;;;;12.95;11.68;;;;;;;;;;5115690;28;20207;-55
2022/04/02 14:38:42;;;;;;;12.82;11.63;;;;;;;;;;5104682;28;20238;-55
2022/04/02 14:41:15;;;;;;;12.13;10.93;;;;;;;;;;5102733;28;20305;-55
2022/04/02 14:43:58;;;;;;;19.00;17.20;;;;;;;;;;5095894;28;20707;-55
2022/04/02 14:46:42;;;;;;;24.23;21.83;;;;;;;;;;5095920;28;20249;-56
2022/04/02 14:49:37;;;;;;;21.80;19.67;;;;;;;;;;5095998;28;20207;-55
2022/04/02 14:52:20;;;;;;;20.65;18.55;;;;;;;;;;5095101;28;20579;-55
2022/04/02 14:55:02;;;;;;;20.50;18.58;;;;;;;;;;5095375;28;20199;-55
2022/04/02 14:57:45;;;;;;;21.20;19.10;;;;;;;;;;5093147;28;20204;-55
2022/04/02 15:00:39;;;;;;;20.38;18.38;;;;;;;;;;5098010;28;20658;-55
2022/04/02 15:03:30;;;;;;;18.58;16.77;;;;;;;;;;5115370;28;20206;-55
2022/04/02 15:06:08;;;;;;;19.58;17.58;;;;;;;;;;5115241;28;20582;-56